Time;durP1;ratioP1;P1;durP2;ratioP2;P2;SDS_P1;SDS_P2;PMS_P1;PMS_P2;Temp;Humidity;BMP_temperature;BMP_pressure;BME280_temperature;BME280_humidity;BME280_pressure;Samples;Min_cycle;Max_cycle;Signal;HPM_P1;HPM_P2
2021/09/16 00:00:59;;;;;;;14.52;4.80;;;20.00;77.20;;;;;;5091900;28;20020;-85
2021/09/16 00:03:25;;;;;;;7.72;3.78;;;19.90;77.40;;;;;;5093724;28;20020;-85
2021/09/16 00:05:51;;;;;;;12.90;4.40;;;19.90;77.60;;;;;;5110945;28;20209;-84
2021/09/16 00:08:17;;;;;;;6.18;4.22;;;19.80;77.80;;;;;;5110735;28;20027;-85
2021/09/16 00:10:42;;;;;;;15.52;4.40;;;19.80;78.00;;;;;;5110709;28;20839;-82
2021/09/16 00:13:08;;;;;;;8.80;4.07;;;19.80;78.10;;;;;;5108318;28;20718;-83
2021/09/16 00:15:35;;;;;;;14.90;4.80;;;19.80;78.20;;;;;;5091392;28;20025;-86
2021/09/16 00:18:00;;;;;;;11.95;4.30;;;19.80;78.40;;;;;;5091403;28;20056;-86
2021/09/16 00:20:26;;;;;;;5.72;3.58;;;19.70;78.50;;;;;;5090553;28;20066;-85
2021/09/16 00:22:52;;;;;;;8.35;4.45;;;19.70;78.80;;;;;;5097315;28;20023;-86
2021/09/16 00:25:18;;;;;;;12.15;4.57;;;19.70;78.90;;;;;;5110891;28;20023;-86
2021/09/16 00:27:43;;;;;;;13.43;4.18;;;19.60;79.00;;;;;;5111679;28;20523;-86
2021/09/16 00:30:10;;;;;;;17.55;4.15;;;19.60;79.10;;;;;;5111274;28;20156;-85
2021/09/16 00:32:37;;;;;;;10.15;5.13;;;19.60;79.30;;;;;;5111073;28;20088;-85
2021/09/16 00:35:04;;;;;;;10.77;4.88;;;19.60;79.50;;;;;;5112338;28;20015;-87
2021/09/16 00:37:29;;;;;;;10.07;4.60;;;19.60;79.50;;;;;;5095557;28;20081;-83
2021/09/16 00:39:55;;;;;;;11.52;4.60;;;19.60;79.60;;;;;;5089487;28;20056;-84
2021/09/16 00:42:21;;;;;;;9.55;4.35;;;19.50;79.70;;;;;;5087966;28;20050;-84
2021/09/16 00:44:47;;;;;;;9.27;4.47;;;19.50;79.90;;;;;;5088224;28;20035;-84
2021/09/16 00:47:14;;;;;;;16.35;4.82;;;19.40;80.00;;;;;;5088547;28;20024;-83
2021/09/16 00:49:39;;;;;;;10.73;4.43;;;19.30;80.10;;;;;;5087583;28;20675;-84
2021/09/16 00:52:07;;;;;;;9.60;4.60;;;19.30;80.30;;;;;;5088797;28;20207;-84
2021/09/16 00:54:34;;;;;;;9.88;4.70;;;19.40;80.40;;;;;;5107781;28;20099;-83
2021/09/16 00:57:01;;;;;;;4.68;4.03;;;19.30;80.40;;;;;;5107693;28;20031;-84
2021/09/16 00:59:28;;;;;;;9.20;4.53;;;19.30;80.60;;;;;;5108302;28;20074;-84
2021/09/16 01:01:54;;;;;;;18.80;4.95;;;19.40;80.60;;;;;;5109620;28;20036;-83
2021/09/16 01:04:20;;;;;;;12.48;3.78;;;19.40;80.50;;;;;;5108458;28;20020;-85
2021/09/16 01:06:47;;;;;;;12.55;4.75;;;19.40;80.40;;;;;;5104538;28;20032;-84
2021/09/16 01:09:12;;;;;;;11.65;4.85;;;19.50;80.20;;;;;;5087375;28;20480;-84
2021/09/16 01:11:39;;;;;;;9.45;4.60;;;19.50;80.00;;;;;;5086871;28;20039;-83
2021/09/16 01:14:07;;;;;;;7.05;4.30;;;19.60;80.00;;;;;;5088355;28;20565;-84
2021/09/16 01:16:33;;;;;;;7.57;4.10;;;19.60;80.00;;;;;;5089639;28;20070;-85
2021/09/16 01:18:59;;;;;;;10.50;4.60;;;19.50;79.90;;;;;;5089586;28;20051;-85
2021/09/16 01:21:24;;;;;;;5.78;4.45;;;19.60;80.10;;;;;;5088239;28;20028;-84
2021/09/16 01:23:51;;;;;;;15.70;4.53;;;19.70;80.10;;;;;;5097142;28;20734;-85
2021/09/16 01:26:16;;;;;;;12.43;4.05;;;19.60;79.80;;;;;;5090541;28;20404;-82
2021/09/16 01:28:42;;;;;;;13.98;4.47;;;19.60;79.70;;;;;;5089536;28;20028;-85
2021/09/16 01:31:08;;;;;;;11.70;4.57;;;19.60;79.40;;;;;;5090396;28;20032;-84
2021/09/16 01:33:34;;;;;;;12.38;5.00;;;19.70;79.60;;;;;;5090371;28;20024;-86
2021/09/16 01:35:59;;;;;;;6.60;4.40;;;19.60;79.60;;;;;;5090358;28;20035;-85
2021/09/16 01:38:25;;;;;;;15.23;4.80;;;19.60;79.90;;;;;;5100454;28;20134;-86
2021/09/16 01:40:52;;;;;;;6.88;4.30;;;19.60;79.80;;;;;;5089773;28;20021;-84
2021/09/16 01:43:17;;;;;;;13.77;4.43;;;19.50;79.90;;;;;;5087078;28;20135;-85
2021/09/16 01:45:43;;;;;;;6.85;4.57;;;19.60;79.90;;;;;;5088541;28;20069;-84
2021/09/16 01:48:09;;;;;;;8.10;5.10;;;19.50;79.90;;;;;;5087467;28;20028;-83
2021/09/16 01:50:35;;;;;;;5.93;4.18;;;19.50;80.20;;;;;;5087901;28;20034;-83
2021/09/16 01:53:01;;;;;;;8.52;4.43;;;19.50;80.00;;;;;;5086969;28;20047;-84
2021/09/16 01:55:26;;;;;;;6.00;4.45;;;19.50;80.00;;;;;;5086341;28;20472;-85
2021/09/16 01:57:52;;;;;;;7.32;4.70;;;19.60;80.10;;;;;;5088750;28;20028;-84
2021/09/16 02:00:18;;;;;;;14.07;5.22;;;19.50;80.20;;;;;;5087300;28;20517;-84
2021/09/16 02:02:45;;;;;;;7.65;4.57;;;19.50;80.20;;;;;;5086816;28;20028;-84
2021/09/16 02:05:11;;;;;;;18.10;5.28;;;19.40;80.10;;;;;;5088374;28;20112;-84
2021/09/16 02:07:37;;;;;;;7.10;4.70;;;19.40;80.50;;;;;;5089987;28;20107;-86
2021/09/16 02:10:04;;;;;;;8.90;4.78;;;19.40;80.40;;;;;;5088797;28;20535;-83
2021/09/16 02:12:30;;;;;;;11.45;4.80;;;19.40;80.50;;;;;;5086258;28;20063;-84
2021/09/16 02:14:56;;;;;;;10.60;5.00;;;19.30;80.60;;;;;;5084630;28;20069;-84
2021/09/16 02:17:22;;;;;;;7.22;4.88;;;19.30;80.70;;;;;;5080307;28;20085;-84
2021/09/16 02:19:47;;;;;;;13.30;5.10;;;19.30;80.70;;;;;;5075422;28;20024;-84
2021/09/16 02:22:13;;;;;;;11.20;4.70;;;19.30;80.70;;;;;;5082696;28;20258;-85
2021/09/16 02:24:39;;;;;;;11.68;4.95;;;19.40;80.60;;;;;;5101082;28;20027;-83
2021/09/16 02:27:05;;;;;;;8.73;4.43;;;19.30;80.60;;;;;;5103007;28;20032;-82
2021/09/16 02:29:30;;;;;;;9.70;5.28;;;19.40;80.40;;;;;;5090768;28;20523;-83
2021/09/16 02:31:56;;;;;;;12.13;5.47;;;19.40;80.10;;;;;;5082665;28;20051;-83
2021/09/16 02:34:22;;;;;;;11.75;6.88;;;19.50;79.90;;;;;;5081516;28;20089;-83
2021/09/16 02:36:47;;;;;;;18.20;4.70;;;19.60;79.60;;;;;;5082991;28;20027;-83
2021/09/16 02:39:13;;;;;;;15.65;5.18;;;19.70;79.30;;;;;;5082152;28;20107;-82
2021/09/16 02:41:41;;;;;;;9.23;4.80;;;19.70;79.00;;;;;;5084267;28;20097;-84
2021/09/16 02:44:07;;;;;;;9.15;4.82;;;19.70;78.80;;;;;;5083678;28;20021;-85
2021/09/16 02:46:33;;;;;;;8.75;4.95;;;19.80;78.50;;;;;;5083061;28;20537;-85
2021/09/16 02:48:58;;;;;;;8.27;4.85;;;19.80;78.50;;;;;;5099625;28;20035;-84
2021/09/16 02:51:24;;;;;;;10.38;4.78;;;19.80;78.50;;;;;;5103253;28;20410;-85
2021/09/16 02:53:50;;;;;;;6.82;4.25;;;19.80;78.50;;;;;;5104663;28;20467;-85
2021/09/16 02:56:15;;;;;;;19.20;4.80;;;19.70;78.50;;;;;;5105349;28;20868;-85
2021/09/16 02:58:41;;;;;;;12.93;4.38;;;19.80;78.90;;;;;;5104849;28;20026;-83
2021/09/16 03:01:06;;;;;;;8.63;4.13;;;19.70;79.20;;;;;;5102970;28;20059;-86
2021/09/16 03:03:32;;;;;;;11.80;4.63;;;19.70;79.70;;;;;;5103285;28;20574;-85
2021/09/16 03:05:58;;;;;;;8.15;4.10;;;19.60;79.80;;;;;;5103690;28;20058;-84
2021/09/16 03:08:24;;;;;;;10.75;5.03;;;19.50;79.80;;;;;;5092286;28;20115;-85
2021/09/16 03:10:49;;;;;;;14.35;6.03;;;19.50;79.90;;;;;;5099428;28;20051;-85
2021/09/16 03:13:15;;;;;;;8.75;5.00;;;19.50;80.10;;;;;;5100452;28;20036;-83
2021/09/16 03:15:40;;;;;;;17.30;5.68;;;19.50;80.00;;;;;;5103575;28;20040;-85
2021/09/16 03:18:06;;;;;;;13.98;5.85;;;19.50;80.10;;;;;;5103743;28;20287;-84
2021/09/16 03:20:32;;;;;;;12.98;5.47;;;19.50;80.10;;;;;;5106703;28;20047;-85
2021/09/16 03:22:57;;;;;;;10.00;5.68;;;19.50;80.10;;;;;;5094904;28;20059;-83
2021/09/16 03:25:23;;;;;;;13.60;5.32;;;19.50;80.20;;;;;;5109025;28;20099;-84
2021/09/16 03:27:49;;;;;;;15.35;5.35;;;19.50;80.40;;;;;;5108610;28;20585;-88
2021/09/16 03:30:14;;;;;;;14.75;5.07;;;19.50;80.30;;;;;;5109551;28;20527;-86
2021/09/16 03:32:41;;;;;;;15.00;5.57;;;19.70;79.50;;;;;;5110031;28;20046;-86
2021/09/16 03:35:08;;;;;;;13.77;5.70;;;19.70;78.90;;;;;;5108941;28;20514;-86
2021/09/16 03:37:34;;;;;;;21.95;5.35;;;19.70;78.90;;;;;;5099893;28;20035;-86
2021/09/16 03:40:00;;;;;;;7.93;5.57;;;19.70;79.00;;;;;;5088743;28;20158;-83
2021/09/16 03:42:26;;;;;;;11.82;5.60;;;19.70;79.40;;;;;;5086188;28;20103;-84
2021/09/16 03:44:52;;;;;;;13.27;5.75;;;19.70;78.80;;;;;;5086117;28;20122;-85
2021/09/16 03:47:18;;;;;;;15.25;5.78;;;19.80;78.60;;;;;;5088466;28;20424;-83
2021/09/16 03:49:43;;;;;;;10.02;5.50;;;19.80;78.60;;;;;;5085759;28;20052;-82
2021/09/16 03:52:10;;;;;;;11.77;5.10;;;19.80;78.50;;;;;;5085466;28;20496;-84
2021/09/16 03:54:37;;;;;;;11.32;5.40;;;19.80;78.70;;;;;;5106767;28;20031;-83
2021/09/16 03:57:03;;;;;;;11.07;6.57;;;19.70;79.00;;;;;;5108162;28;20024;-85
2021/09/16 03:59:29;;;;;;;10.60;5.43;;;19.60;79.20;;;;;;5108470;28;20016;-83
2021/09/16 04:01:55;;;;;;;11.82;5.30;;;19.60;79.60;;;;;;5108139;27;20062;-84
2021/09/16 04:04:21;;;;;;;16.52;5.30;;;19.50;79.80;;;;;;5108168;28;20058;-84
2021/09/16 04:06:47;;;;;;;7.60;4.78;;;19.50;80.00;;;;;;5106858;28;20093;-86
2021/09/16 04:09:12;;;;;;;8.68;5.00;;;19.40;80.10;;;;;;5098216;28;20021;-86
2021/09/16 04:11:38;;;;;;;7.13;5.22;;;19.40;80.30;;;;;;5088937;28;20484;-86
2021/09/16 04:14:04;;;;;;;12.93;4.70;;;19.40;80.10;;;;;;5089734;28;20020;-86
2021/09/16 04:16:30;;;;;;;11.80;5.70;;;19.40;79.40;;;;;;5091349;28;20028;-86
2021/09/16 04:18:56;;;;;;;8.15;4.53;;;19.50;79.40;;;;;;5091048;28;20028;-86
2021/09/16 04:21:22;;;;;;;10.13;5.20;;;19.50;79.20;;;;;;5091036;28;20024;-86
2021/09/16 04:23:48;;;;;;;8.95;5.90;;;19.50;79.40;;;;;;5094030;28;20094;-86
2021/09/16 04:26:14;;;;;;;8.25;5.38;;;19.50;79.50;;;;;;5092181;28;20542;-86
2021/09/16 04:28:40;;;;;;;24.58;5.00;;;19.50;79.60;;;;;;5092682;28;20027;-86
2021/09/16 04:31:06;;;;;;;16.40;5.78;;;19.50;80.50;;;;;;5086305;28;20160;-85
2021/09/16 04:33:32;;;;;;;10.65;5.65;;;19.50;79.40;;;;;;5090779;28;20020;-86
2021/09/16 04:35:58;;;;;;;14.30;5.15;;;19.50;79.30;;;;;;5091880;28;20036;-86
2021/09/16 04:38:24;;;;;;;13.45;5.60;;;19.50;79.60;;;;;;5089582;28;20081;-83
2021/09/16 04:40:49;;;;;;;8.10;5.30;;;19.60;79.70;;;;;;5092790;27;20024;-84
2021/09/16 04:43:15;;;;;;;18.70;5.90;;;19.50;80.20;;;;;;5088221;28;20036;-84
2021/09/16 04:45:41;;;;;;;13.30;5.60;;;19.50;80.20;;;;;;5086925;28;20030;-83
2021/09/16 04:48:06;;;;;;;11.88;6.50;;;19.50;80.50;;;;;;5088656;28;20085;-83
2021/09/16 04:50:32;;;;;;;10.45;5.85;;;19.40;80.90;;;;;;5087567;28;20030;-83
2021/09/16 04:52:58;;;;;;;14.98;5.97;;;19.30;81.30;;;;;;5088549;28;20143;-83
2021/09/16 04:55:23;;;;;;;11.27;5.50;;;19.30;81.80;;;;;;5089282;28;20031;-84
2021/09/16 04:57:49;;;;;;;9.65;5.70;;;19.20;82.00;;;;;;5089813;28;20521;-88
2021/09/16 05:00:15;;;;;;;9.18;5.43;;;19.20;82.20;;;;;;5091431;28;20073;-85
2021/09/16 05:02:40;;;;;;;10.60;6.82;;;19.10;82.20;;;;;;5087226;28;20027;-85
2021/09/16 05:05:06;;;;;;;10.50;5.50;;;19.10;82.00;;;;;;5090544;28;20072;-86
2021/09/16 05:07:32;;;;;;;17.67;5.18;;;19.10;82.20;;;;;;5086161;28;21973;-81
2021/09/16 05:09:58;;;;;;;10.05;5.68;;;19.10;82.20;;;;;;5086038;28;20043;-85
2021/09/16 05:12:23;;;;;;;12.20;5.72;;;19.10;82.30;;;;;;5088664;28;20783;-87
2021/09/16 05:14:49;;;;;;;12.32;6.70;;;19.10;82.40;;;;;;5089285;28;20017;-86
2021/09/16 05:17:15;;;;;;;9.05;6.00;;;19.20;82.10;;;;;;5090863;28;20035;-88
2021/09/16 05:19:40;;;;;;;9.77;5.90;;;19.30;82.10;;;;;;5089236;28;20016;-87
2021/09/16 05:22:06;;;;;;;13.35;6.10;;;19.30;81.60;;;;;;5092364;28;20020;-86
2021/09/16 05:24:32;;;;;;;16.63;5.97;;;19.40;81.30;;;;;;5092081;28;20536;-87
2021/09/16 05:26:58;;;;;;;11.88;5.80;;;19.40;81.90;;;;;;5111758;28;20038;-87
2021/09/16 05:29:24;;;;;;;13.30;6.10;;;19.40;82.10;;;;;;5104024;28;20032;-87
2021/09/16 05:31:50;;;;;;;11.82;5.75;;;19.50;81.90;;;;;;5090848;28;20051;-84
2021/09/16 05:34:15;;;;;;;16.15;5.97;;;19.50;81.10;;;;;;5088369;28;20039;-84
2021/09/16 05:36:42;;;;;;;10.30;5.47;;;19.60;80.90;;;;;;5090325;28;20069;-84
2021/09/16 05:39:09;;;;;;;10.65;5.82;;;19.60;80.30;;;;;;5089815;28;20028;-84
2021/09/16 05:41:35;;;;;;;10.50;5.78;;;19.80;80.10;;;;;;5088714;28;20467;-83
2021/09/16 05:44:00;;;;;;;12.60;5.82;;;19.90;79.70;;;;;;5089314;28;20107;-84
2021/09/16 05:46:26;;;;;;;8.77;5.68;;;20.00;78.90;;;;;;5088885;28;20028;-85
2021/09/16 05:48:52;;;;;;;12.02;6.07;;;20.10;78.50;;;;;;5089958;28;20097;-83
2021/09/16 05:51:17;;;;;;;13.45;6.10;;;20.20;78.20;;;;;;5089669;28;20078;-83
2021/09/16 05:53:43;;;;;;;17.23;6.10;;;20.30;77.50;;;;;;5088209;28;20028;-85
2021/09/16 05:56:09;;;;;;;7.05;5.15;;;20.30;77.40;;;;;;5088714;28;20024;-84
2021/09/16 05:58:34;;;;;;;14.88;5.47;;;20.40;76.90;;;;;;5089058;28;20392;-84
2021/09/16 06:01:00;;;;;;;10.00;6.10;;;20.50;76.50;;;;;;5089732;28;20059;-83
2021/09/16 06:03:25;;;;;;;9.32;5.50;;;20.60;76.50;;;;;;5089110;28;20032;-84
2021/09/16 06:05:51;;;;;;;9.35;5.25;;;20.80;76.00;;;;;;5088166;28;20028;-84
2021/09/16 06:08:17;;;;;;;8.45;5.72;;;20.80;75.60;;;;;;5088174;28;20024;-84
2021/09/16 06:10:42;;;;;;;13.80;5.18;;;20.90;75.20;;;;;;5088116;28;20052;-84
2021/09/16 06:13:10;;;;;;;11.77;6.07;;;20.80;75.50;;;;;;5088925;28;20044;-84
2021/09/16 06:15:35;;;;;;;12.48;5.97;;;20.80;75.30;;;;;;5089258;28;20078;-85
2021/09/16 06:18:01;;;;;;;10.90;6.40;;;20.70;75.40;;;;;;5088355;28;20031;-83
2021/09/16 06:20:27;;;;;;;14.18;6.10;;;20.90;75.00;;;;;;5087665;28;20016;-84
2021/09/16 06:22:52;;;;;;;7.45;5.22;;;20.80;74.60;;;;;;5088497;28;20032;-85
2021/09/16 06:25:18;;;;;;;13.23;5.70;;;20.80;75.00;;;;;;5089276;28;20035;-83
2021/09/16 06:27:45;;;;;;;10.90;6.05;;;20.90;75.20;;;;;;5088465;28;20078;-85
2021/09/16 06:30:11;;;;;;;14.88;5.93;;;21.00;74.70;;;;;;5089365;28;20016;-84
2021/09/16 06:32:38;;;;;;;14.20;5.65;;;21.10;74.50;;;;;;5086140;28;20039;-84
2021/09/16 06:35:07;;;;;;;10.00;5.18;;;21.20;74.10;;;;;;5088244;28;20030;-83
2021/09/16 06:37:33;;;;;;;14.52;6.72;;;21.20;74.50;;;;;;5088671;28;20038;-84
2021/09/16 06:39:59;;;;;;;12.98;6.13;;;21.40;74.60;;;;;;5088878;28;20103;-82
2021/09/16 06:42:24;;;;;;;16.25;6.63;;;21.50;74.10;;;;;;5088486;28;20108;-85
2021/09/16 06:44:50;;;;;;;14.40;5.85;;;21.70;73.90;;;;;;5087202;28;20166;-83
2021/09/16 06:47:16;;;;;;;12.98;5.75;;;21.80;72.80;;;;;;5087678;28;20078;-85
2021/09/16 06:49:48;;;;;;;10.45;6.03;;;21.90;71.30;;;;;;5087440;28;20076;-85
2021/09/16 06:52:15;;;;;;;9.05;6.10;;;22.00;72.00;;;;;;5088343;28;20036;-84
2021/09/16 06:54:41;;;;;;;16.38;5.95;;;22.30;71.20;;;;;;5088031;28;20078;-84
2021/09/16 06:57:07;;;;;;;10.15;5.75;;;22.60;70.80;;;;;;5091733;28;20024;-84
2021/09/16 06:59:32;;;;;;;12.95;5.68;;;23.20;69.20;;;;;;5091117;28;20610;-82
2021/09/16 07:01:58;;;;;;;31.73;6.32;;;23.80;66.60;;;;;;5091326;28;20388;-80
2021/09/16 07:04:24;;;;;;;9.93;5.60;;;24.40;65.10;;;;;;5091252;28;20484;-83
2021/09/16 07:06:49;;;;;;;15.73;5.55;;;24.90;63.00;;;;;;5091229;28;20035;-81
2021/09/16 07:09:15;;;;;;;18.30;6.00;;;25.30;62.30;;;;;;5089635;28;20032;-84
2021/09/16 07:11:41;;;;;;;10.35;6.22;;;26.00;59.60;;;;;;5089425;28;20077;-83
2021/09/16 07:14:07;;;;;;;9.15;5.43;;;26.60;58.20;;;;;;5089901;28;20036;-84
2021/09/16 07:16:33;;;;;;;8.30;5.88;;;26.80;56.30;;;;;;5089625;28;20032;-84
2021/09/16 07:18:58;;;;;;;15.70;5.78;;;27.20;55.60;;;;;;5091212;28;20062;-83
2021/09/16 07:21:24;;;;;;;12.73;4.97;;;27.70;53.70;;;;;;5089887;28;20034;-82
2021/09/16 07:23:49;;;;;;;16.17;5.15;;;28.00;53.30;;;;;;5090292;28;20017;-81
2021/09/16 07:26:15;;;;;;;9.02;5.30;;;28.50;51.10;;;;;;5090400;28;20043;-82
2021/09/16 07:28:41;;;;;;;14.48;5.20;;;28.80;51.10;;;;;;5090783;28;20398;-81
2021/09/16 07:31:06;;;;;;;10.85;5.15;;;29.30;50.50;;;;;;5090605;28;20403;-81
2021/09/16 07:33:33;;;;;;;10.50;4.88;;;29.90;49.90;;;;;;5090445;28;20374;-82
2021/09/16 07:35:59;;;;;;;7.93;4.93;;;30.20;48.60;;;;;;5090345;28;20020;-81
2021/09/16 07:38:25;;;;;;;7.75;5.05;;;30.50;46.20;;;;;;5089625;28;20658;-81
2021/09/16 07:40:51;;;;;;;11.27;5.72;;;30.10;46.30;;;;;;5089288;28;20028;-82
2021/09/16 07:43:17;;;;;;;12.63;5.35;;;29.40;47.20;;;;;;5090612;28;20074;-82
2021/09/16 07:45:43;;;;;;;15.45;4.95;;;28.80;48.40;;;;;;5090574;28;20035;-82
2021/09/16 07:48:08;;;;;;;16.90;5.53;;;28.70;48.70;;;;;;5089397;28;20039;-81
2021/09/16 07:50:34;;;;;;;9.98;4.82;;;28.90;48.50;;;;;;5089052;28;20115;-83
2021/09/16 07:53:00;;;;;;;20.02;7.20;;;29.80;47.20;;;;;;5089329;28;20036;-82
2021/09/16 07:55:26;;;;;;;19.10;4.90;;;30.50;45.40;;;;;;5090081;28;20039;-83
2021/09/16 07:57:52;;;;;;;10.02;4.43;;;30.70;44.70;;;;;;5089138;28;20050;-83
2021/09/16 08:00:17;;;;;;;7.30;4.18;;;30.80;44.10;;;;;;5090243;28;20028;-82
2021/09/16 08:02:48;;;;;;;9.35;4.43;;;31.10;43.20;;;;;;5089692;28;20051;-81
2021/09/16 08:05:15;;;;;;;8.40;4.35;;;31.20;42.70;;;;;;5090144;28;20431;-82
2021/09/16 08:07:41;;;;;;;9.00;4.70;;;31.20;42.40;;;;;;5086935;28;20032;-82
2021/09/16 08:10:07;;;;;;;12.43;4.68;;;31.00;42.90;;;;;;5087986;28;20051;-82
2021/09/16 08:12:33;;;;;;;10.60;4.80;;;31.30;42.10;;;;;;5088168;28;20036;-82
2021/09/16 08:14:59;;;;;;;7.30;5.43;;;31.30;41.80;;;;;;5088036;28;20050;-82
2021/09/16 08:17:25;;;;;;;7.05;4.70;;;30.90;41.30;;;;;;5089830;28;20036;-83
2021/09/16 08:19:50;;;;;;;11.90;4.68;;;30.20;43.60;;;;;;5088203;28;20020;-82
2021/09/16 08:22:16;;;;;;;9.35;3.60;;;30.10;43.40;;;;;;5089621;28;20032;-82
2021/09/16 08:24:42;;;;;;;4.90;3.28;;;30.40;43.20;;;;;;5089342;28;20423;-82
2021/09/16 08:27:08;;;;;;;8.40;4.15;;;31.00;42.30;;;;;;5088506;28;20051;-82
2021/09/16 08:29:34;;;;;;;5.22;3.42;;;31.90;41.40;;;;;;5087863;28;20038;-81
2021/09/16 08:32:00;;;;;;;8.32;4.50;;;32.50;39.60;;;;;;5087921;28;20032;-80
2021/09/16 08:34:27;;;;;;;7.63;3.05;;;33.20;38.10;;;;;;5088895;28;20039;-83
2021/09/16 08:36:55;;;;;;;9.18;3.40;;;33.50;37.10;;;;;;5089000;28;20103;-81
2021/09/16 08:39:21;;;;;;;11.15;4.15;;;33.30;37.60;;;;;;5089254;28;20032;-82
2021/09/16 08:41:47;;;;;;;14.82;3.47;;;32.60;38.00;;;;;;5089190;28;20024;-81
2021/09/16 08:44:18;;;;;;;9.98;4.13;;;32.00;38.20;;;;;;5089367;28;20036;-82
2021/09/16 08:46:43;;;;;;;10.30;3.28;;;31.80;39.20;;;;;;5087867;28;20028;-83
2021/09/16 08:49:09;;;;;;;7.97;3.58;;;32.00;39.10;;;;;;5088608;28;20027;-83
2021/09/16 08:51:38;;;;;;;10.65;3.67;;;32.50;38.30;;;;;;5087162;28;20062;-82
2021/09/16 08:54:04;;;;;;;12.27;4.85;;;32.70;38.60;;;;;;5087419;28;20062;-81
2021/09/16 08:56:31;;;;;;;9.98;4.00;;;32.70;38.50;;;;;;5088737;28;20071;-82
2021/09/16 08:59:02;;;;;;;7.32;4.32;;;32.40;38.80;;;;;;5087427;28;20115;-83
2021/09/16 09:01:28;;;;;;;11.75;4.63;;;32.30;39.30;;;;;;5088553;28;20039;-82
2021/09/16 09:03:54;;;;;;;8.65;4.13;;;32.20;39.10;;;;;;5087481;28;20020;-82
2021/09/16 09:06:28;;;;;;;9.32;4.55;;;32.50;39.20;;;;;;5087241;28;20032;-82
2021/09/16 09:09:20;;;;;;;17.63;5.05;;;32.60;38.80;;;;;;5087416;28;20024;-81
2021/09/16 09:12:24;;;;;;;9.43;4.18;;;32.80;39.30;;;;;;5087950;28;20569;-82
2021/09/16 09:14:54;;;;;;;13.27;4.40;;;32.80;38.40;;;;;;5025811;28;20057;-82
2021/09/16 09:17:29;;;;;;;6.15;3.53;;;33.30;37.90;;;;;;5025539;28;20152;-83
2021/09/16 09:20:01;;;;;;;10.57;3.40;;;33.60;37.90;;;;;;5060605;28;20706;-82
2021/09/16 09:22:33;;;;;;;6.30;3.78;;;34.10;36.80;;;;;;5088365;28;20058;-82
2021/09/16 09:25:05;;;;;;;8.77;3.25;;;34.20;36.20;;;;;;5086479;28;20097;-81
2021/09/16 09:27:35;;;;;;;10.25;3.25;;;34.20;36.40;;;;;;5087380;28;20042;-82
2021/09/16 09:30:09;;;;;;;8.20;3.70;;;34.30;36.40;;;;;;5087527;28;20020;-81
2021/09/16 09:32:57;;;;;;;9.80;3.60;;;34.50;35.60;;;;;;5088036;28;20040;-82
2021/09/16 09:35:26;;;;;;;6.85;3.03;;;34.70;35.80;;;;;;5088281;28;20036;-82
2021/09/16 09:37:52;;;;;;;12.82;3.70;;;34.70;36.00;;;;;;5086233;28;20390;-82
2021/09/16 09:40:28;;;;;;;9.50;4.10;;;34.90;35.30;;;;;;5086571;28;20089;-81
2021/09/16 09:42:54;;;;;;;5.95;3.35;;;34.40;36.10;;;;;;5087969;28;20024;-82
2021/09/16 09:45:20;;;;;;;19.27;3.97;;;34.40;36.60;;;;;;5086772;28;20039;-80
2021/09/16 09:47:48;;;;;;;14.88;4.18;;;34.40;36.20;;;;;;5086187;28;20039;-82
2021/09/16 09:50:22;;;;;;;6.68;3.70;;;34.70;36.50;;;;;;5087126;28;20031;-83
2021/09/16 09:52:50;;;;;;;14.80;4.28;;;35.10;36.40;;;;;;5087313;28;20303;-82
2021/09/16 09:55:18;;;;;;;9.43;4.35;;;35.30;35.60;;;;;;5086982;28;20064;-83
2021/09/16 09:57:44;;;;;;;9.85;4.03;;;35.20;35.40;;;;;;5086411;28;20549;-82
2021/09/16 10:00:18;;;;;;;7.47;4.38;;;34.70;36.30;;;;;;5087607;28;20163;-83
2021/09/16 10:02:54;;;;;;;10.95;3.70;;;34.80;36.50;;;;;;5086286;28;20023;-82
2021/09/16 10:05:24;;;;;;;14.75;4.65;;;35.00;35.60;;;;;;5086245;28;20439;-82
2021/09/16 10:07:51;;;;;;;12.43;4.82;;;34.70;35.90;;;;;;5086305;28;20055;-83
2021/09/16 10:10:17;;;;;;;8.02;4.63;;;34.30;36.40;;;;;;5085442;28;20402;-83
2021/09/16 10:12:45;;;;;;;11.75;4.38;;;34.00;37.30;;;;;;5086278;28;20458;-83
2021/09/16 10:15:14;;;;;;;7.20;4.38;;;34.20;37.40;;;;;;5087548;28;20107;-82
2021/09/16 10:17:40;;;;;;;17.95;4.35;;;34.20;37.30;;;;;;5086074;28;20437;-83
2021/09/16 10:20:09;;;;;;;9.07;4.60;;;34.30;36.50;;;;;;5088396;28;20030;-82
2021/09/16 10:22:35;;;;;;;17.00;4.90;;;34.00;37.30;;;;;;5087895;28;20028;-82
2021/09/16 10:25:02;;;;;;;7.50;4.38;;;33.50;37.30;;;;;;5087576;28;20031;-83
2021/09/16 10:27:32;;;;;;;11.30;4.88;;;32.60;38.60;;;;;;5088109;28;20028;-82
2021/09/16 10:29:59;;;;;;;11.73;4.90;;;31.50;40.30;;;;;;5087745;28;20035;-82
2021/09/16 10:32:28;;;;;;;17.05;5.38;;;30.80;41.60;;;;;;5087036;28;20416;-82
2021/09/16 10:34:59;;;;;;;12.32;5.38;;;30.70;42.60;;;;;;5088087;28;20058;-82
2021/09/16 10:37:34;;;;;;;14.57;5.32;;;30.40;42.70;;;;;;5087182;28;20034;-83
2021/09/16 10:40:16;;;;;;;12.38;5.68;;;30.00;43.50;;;;;;5087293;28;20024;-83
2021/09/16 10:42:51;;;;;;;13.25;5.10;;;29.60;44.00;;;;;;5088711;28;20047;-85
2021/09/16 10:45:30;;;;;;;16.70;4.93;;;29.50;44.60;;;;;;5088390;28;20078;-83
2021/09/16 10:48:17;;;;;;;11.63;4.72;;;29.60;45.00;;;;;;5087297;28;20035;-84
2021/09/16 10:50:46;;;;;;;16.98;5.45;;;29.70;45.60;;;;;;5088075;28;20031;-83
2021/09/16 10:53:40;;;;;;;8.07;4.88;;;29.70;45.00;;;;;;5087544;28;20027;-83
2021/09/16 10:56:26;;;;;;;14.02;5.60;;;29.80;44.80;;;;;;5088408;28;20081;-83
2021/09/16 10:58:56;;;;;;;13.82;5.18;;;29.60;45.10;;;;;;5086900;28;20028;-84
2021/09/16 11:01:49;;;;;;;22.73;4.97;;;29.50;45.50;;;;;;5087307;28;20499;-83
2021/09/16 11:04:15;;;;;;;11.35;5.13;;;29.30;45.60;;;;;;5088585;28;20024;-83
2021/09/16 11:06:42;;;;;;;13.70;5.30;;;29.20;46.20;;;;;;5087325;28;20028;-84
2021/09/16 11:09:08;;;;;;;11.25;4.70;;;29.20;46.00;;;;;;5088400;28;20021;-83
2021/09/16 11:11:55;;;;;;;6.55;4.70;;;29.10;46.50;;;;;;5087769;28;20056;-82
2021/09/16 11:14:31;;;;;;;16.55;6.00;;;29.10;46.60;;;;;;5087189;28;20032;-84
2021/09/16 11:16:58;;;;;;;14.82;5.53;;;29.20;46.50;;;;;;5087282;28;20476;-81
2021/09/16 11:19:23;;;;;;;7.63;4.72;;;29.00;46.70;;;;;;5088368;28;20043;-84
2021/09/16 11:22:07;;;;;;;11.60;4.95;;;28.90;47.10;;;;;;5086544;28;20012;-83
2021/09/16 11:24:41;;;;;;;11.73;5.18;;;29.00;47.20;;;;;;5087888;28;20087;-83
2021/09/16 11:27:09;;;;;;;11.68;4.93;;;28.90;47.10;;;;;;5088007;28;20094;-83
2021/09/16 11:29:45;;;;;;;21.88;4.70;;;28.90;47.30;;;;;;5088349;28;20396;-83
2021/09/16 11:32:12;;;;;;;18.70;4.38;;;29.20;48.00;;;;;;5088418;28;20040;-83
2021/09/16 11:35:10;;;;;;;12.88;4.35;;;29.20;47.10;;;;;;5087235;28;20024;-83
2021/09/16 11:37:51;;;;;;;20.27;4.88;;;29.30;47.00;;;;;;5087085;28;20122;-84
2021/09/16 11:40:24;;;;;;;17.60;5.03;;;29.30;47.20;;;;;;5088314;28;20020;-84
2021/09/16 11:42:52;;;;;;;7.95;4.82;;;29.30;47.00;;;;;;5091435;28;20069;-83
2021/09/16 11:45:28;;;;;;;13.75;4.72;;;29.50;47.00;;;;;;5091485;28;20081;-82
2021/09/16 11:48:14;;;;;;;13.10;4.38;;;29.50;46.80;;;;;;5091434;28;20020;-82
2021/09/16 11:50:41;;;;;;;;;;;29.60;46.90;;;;;;5091312;28;20641;-83
2021/09/16 11:53:11;;;;;;;13.82;4.53;;;29.70;46.80;;;;;;5090744;28;19965;-83
2021/09/16 11:55:40;;;;;;;12.55;4.30;;;29.80;46.80;;;;;;5089686;28;20458;-83
2021/09/16 11:58:12;;;;;;;10.80;4.30;;;29.80;46.50;;;;;;5089679;28;20024;-83
2021/09/16 12:00:48;;;;;;;8.63;4.68;;;29.80;46.60;;;;;;5090533;28;20055;-82
2021/09/16 12:03:28;;;;;;;6.07;4.00;;;29.70;47.00;;;;;;5090851;28;20544;-83
2021/09/16 12:05:55;;;;;;;6.85;4.28;;;29.60;47.30;;;;;;5089443;28;20024;-82
2021/09/16 12:08:30;;;;;;;10.05;4.40;;;29.50;47.30;;;;;;5089463;28;20024;-83
2021/09/16 12:10:57;;;;;;;6.13;4.00;;;29.50;47.80;;;;;;5090376;28;20048;-83
2021/09/16 12:13:26;;;;;;;5.70;3.92;;;29.30;48.00;;;;;;5089724;28;20027;-83
2021/09/16 12:16:20;;;;;;;9.27;4.50;;;29.30;48.20;;;;;;5091163;28;20442;-82
2021/09/16 12:18:48;;;;;;;10.88;4.30;;;29.40;47.90;;;;;;5088560;28;20040;-82
2021/09/16 12:21:21;;;;;;;12.35;4.15;;;29.60;47.90;;;;;;5089456;28;20046;-81
2021/09/16 12:23:55;;;;;;;8.30;4.47;;;29.80;48.00;;;;;;5090035;28;20492;-83
2021/09/16 12:26:26;;;;;;;9.73;4.85;;;30.00;47.30;;;;;;5090050;28;20024;-82
2021/09/16 12:28:59;;;;;;;11.07;5.00;;;30.20;46.90;;;;;;5090686;28;20059;-82
2021/09/16 12:31:31;;;;;;;7.63;4.28;;;30.40;45.50;;;;;;5088481;28;20031;-83
2021/09/16 12:34:05;;;;;;;9.73;4.75;;;30.40;45.90;;;;;;5089201;28;20058;-82
2021/09/16 12:36:33;;;;;;;11.43;4.63;;;30.30;46.30;;;;;;5089894;28;20027;-82
2021/09/16 12:39:07;;;;;;;11.27;4.28;;;30.10;46.20;;;;;;5089963;28;20031;-83
2021/09/16 12:41:34;;;;;;;13.02;4.93;;;30.00;46.60;;;;;;5090164;28;20145;-83
2021/09/16 12:44:11;;;;;;;17.88;4.63;;;30.00;47.30;;;;;;5091474;28;20473;-82